Terminal Aerodrome Forecast
Issued by NWS

Home | Current Version | Previous Version | Graphics & Text | Print | Product List | Glossary On
Versions: 1 2 3 4 5 6 7 8 9 10 11 12 13 14 15 16 17 18 19 20 21 22 23
000
FTUS43 KGRB 271710 AAC
TAFAUW
TAF AMD
KAUW 271710Z 2717/2812 29009G15KT 2SM -RASNPL SCT005 OVC016
      TEMPO 2717/2719 1/2SM -SN FZFG BKN006
     FM271900 29012G20KT 5SM -SNDZ OVC011
     FM272000 27011G19KT P6SM OVC016
     FM280300 26008KT P6SM BKN016
     FM280800 26006KT P6SM SCT022=

USA.gov is the U.S. government's official web portal to all federal, state and local government web resources and services.